createdAt,value
2018-06-15T00:01:05.910Z,100017.23
2018-06-15T00:03:34.682Z,100014.76
2018-06-15T00:06:03.479Z,100010.55
2018-06-15T00:08:32.272Z,100009.73
2018-06-15T00:11:01.050Z,100011.33
2018-06-15T00:13:29.824Z,100009.22
2018-06-15T00:15:58.597Z,100000.83
2018-06-15T00:18:27.371Z,100005.19
2018-06-15T00:20:56.134Z,100012.79
2018-06-15T00:23:24.897Z,100007.98
2018-06-15T00:25:53.691Z,100008.95
2018-06-15T00:28:22.438Z,100015.91
2018-06-15T00:30:51.211Z,100008.95
2018-06-15T00:33:19.967Z,100015.28
2018-06-15T00:35:48.722Z,100022.22
2018-06-15T00:38:17.460Z,100013.59
2018-06-15T00:40:46.215Z,100017.59
2018-06-15T00:43:14.990Z,100007.48
2018-06-15T00:45:43.766Z,100010.75
2018-06-15T00:48:12.562Z,100010.41
2018-06-15T00:50:41.347Z,100007.77
2018-06-15T00:53:10.094Z,100003.47
2018-06-15T00:55:38.877Z,100006.55
2018-06-15T00:58:07.679Z,100002.45
2018-06-15T01:00:36.459Z,100002.80
2018-06-15T01:03:05.252Z,100000.75
2018-06-15T01:05:33.987Z,100012.86
2018-06-15T01:08:02.788Z,100006.23
2018-06-15T01:10:31.563Z,100003.69
2018-06-15T01:13:00.362Z,99993.34
2018-06-15T01:15:29.148Z,99989.09
2018-06-15T01:17:57.948Z,99978.64
2018-06-15T01:20:26.758Z,99974.41
2018-06-15T01:22:55.599Z,99983.23
2018-06-15T01:25:24.337Z,99968.19
2018-06-15T01:27:53.103Z,99973.23
2018-06-15T01:30:21.856Z,99981.13
2018-06-15T01:32:50.636Z,99977.27
2018-06-15T01:35:19.390Z,99983.77
2018-06-15T01:37:48.210Z,99986.45
2018-06-15T01:40:16.997Z,99986.26
2018-06-15T01:42:45.756Z,99984.61
2018-06-15T01:45:14.690Z,99981.80
2018-06-15T01:47:43.425Z,99985.55
2018-06-15T01:50:12.286Z,99990.77
2018-06-15T01:52:41.314Z,99990.31
2018-06-15T01:55:10.138Z,99983.27
2018-06-15T01:57:38.938Z,99990.43
2018-06-15T02:00:07.923Z,99981.48
2018-06-15T02:02:36.685Z,99974.28
2018-06-15T02:05:05.465Z,99972.78
2018-06-15T02:07:34.538Z,99974.03
2018-06-15T02:10:03.342Z,99967.47
2018-06-15T02:12:32.098Z,99981.77
2018-06-15T02:15:01.162Z,99977.75
2018-06-15T02:17:29.983Z,99976.53
2018-06-15T02:19:58.702Z,99969.20
2018-06-15T02:22:27.474Z,99965.11
2018-06-15T02:24:56.219Z,99970.28
2018-06-15T02:27:25.017Z,99975.56
2018-06-15T02:29:53.798Z,99969.23
2018-06-15T02:32:22.631Z,99963.22
2018-06-15T02:34:51.492Z,99961.20
2018-06-15T02:37:20.676Z,99970.36
2018-06-15T02:39:49.430Z,99973.89
2018-06-15T02:42:18.173Z,99966.08
2018-06-15T02:44:46.946Z,99971.78
2018-06-15T02:47:15.698Z,99969.91
2018-06-15T02:49:44.454Z,99966.78
2018-06-15T02:52:13.286Z,99965.62
2018-06-15T02:54:42.120Z,99965.57
2018-06-15T02:57:10.931Z,99969.11
2018-06-15T02:59:39.723Z,99979.81
2018-06-15T03:02:08.466Z,99977.27
2018-06-15T03:04:37.259Z,99968.91
2018-06-15T03:07:06.032Z,99965.93
2018-06-15T03:09:34.771Z,99974.30
2018-06-15T03:12:03.559Z,99975.56
2018-06-15T03:14:32.303Z,99981.62
2018-06-15T03:17:01.053Z,99972.13
2018-06-15T03:19:29.857Z,99974.28
2018-06-15T03:21:58.794Z,99984.13
2018-06-15T03:24:27.532Z,99987.96
2018-06-15T03:26:56.308Z,99986.17
2018-06-15T03:29:25.081Z,99981.00
2018-06-15T03:31:53.837Z,99981.54
2018-06-15T03:34:22.616Z,99977.73
2018-06-15T03:36:51.366Z,99981.08
2018-06-15T03:39:20.111Z,99980.25
2018-06-15T03:41:48.866Z,99973.67
2018-06-15T03:44:17.637Z,99974.64
2018-06-15T03:46:46.412Z,99999.73
2018-06-15T03:49:15.274Z,100007.77
2018-06-15T03:51:44.036Z,100011.64
2018-06-15T03:54:12.783Z,100010.33
2018-06-15T03:56:41.516Z,100008.11
2018-06-15T03:59:10.266Z,100018.47
2018-06-15T04:01:39.018Z,100014.66
2018-06-15T04:04:07.806Z,100008.27
2018-06-15T04:06:36.593Z,100010.23
2018-06-15T04:09:08.011Z,100013.42
2018-06-15T04:11:37.093Z,100010.77
2018-06-15T04:14:05.879Z,100009.61
2018-06-15T04:16:35.159Z,99992.13
2018-06-15T04:19:03.933Z,100014.73
2018-06-15T04:21:32.716Z,100007.42
2018-06-15T04:24:01.482Z,100002.73
2018-06-15T04:26:30.281Z,100001.33
2018-06-15T04:28:59.029Z,100004.68
2018-06-15T04:31:27.791Z,100005.11
2018-06-15T04:33:56.542Z,100005.98
2018-06-15T04:36:25.307Z,100010.55
2018-06-15T04:38:54.050Z,100009.73
2018-06-15T04:41:22.795Z,100013.28
2018-06-15T04:43:51.605Z,100008.58
2018-06-15T04:46:20.605Z,100020.14
2018-06-15T04:48:49.369Z,100010.44
2018-06-15T04:51:18.146Z,100017.28
2018-06-15T04:53:47.068Z,99982.14
2018-06-15T04:56:15.838Z,100022.96
2018-06-15T04:58:44.643Z,100025.80
2018-06-15T05:01:14.030Z,100031.49
2018-06-15T05:03:43.148Z,100028.48
2018-06-15T05:06:12.753Z,100022.12
2018-06-15T05:08:41.834Z,100019.12
2018-06-15T05:11:10.973Z,100021.61
2018-06-15T05:13:39.774Z,100026.13
2018-06-15T05:16:08.761Z,100031.50
2018-06-15T05:18:37.553Z,100023.30
2018-06-15T05:21:06.338Z,100022.63
2018-06-15T05:23:35.150Z,100044.05
2018-06-15T05:26:04.002Z,100046.87
2018-06-15T05:28:33.166Z,100031.01
2018-06-15T05:31:02.491Z,100043.20
2018-06-15T05:33:31.253Z,100033.49
2018-06-15T05:36:00.506Z,100038.03
2018-06-15T05:38:29.415Z,100038.02
2018-06-15T05:40:58.549Z,100041.02
2018-06-15T05:43:27.349Z,100043.70
2018-06-15T05:45:56.127Z,100052.23
2018-06-15T05:48:24.937Z,100050.56
2018-06-15T05:50:54.034Z,100048.38
2018-06-15T05:53:22.988Z,100051.73
2018-06-15T05:55:51.818Z,100039.35
2018-06-15T05:58:20.593Z,100049.89
2018-06-15T06:00:49.337Z,100054.41
2018-06-15T06:03:19.814Z,100053.06
2018-06-15T06:05:49.344Z,100058.42
2018-06-15T06:08:19.922Z,100058.24
2018-06-15T06:10:49.255Z,100059.58
2018-06-15T06:13:18.052Z,100063.11
2018-06-15T06:15:47.006Z,100065.91
2018-06-15T06:18:15.876Z,100078.64
2018-06-15T06:20:44.678Z,100087.54
2018-06-15T06:23:13.633Z,99762.67
2018-06-15T06:25:42.544Z,100078.49
2018-06-15T06:28:11.324Z,100080.67
2018-06-15T06:30:40.131Z,100096.10
2018-06-15T06:33:08.914Z,100102.10
2018-06-15T06:35:38.103Z,100118.34
2018-06-15T06:38:06.930Z,100111.64
2018-06-15T06:40:35.689Z,100107.48
2018-06-15T06:43:04.488Z,100110.66
2018-06-15T06:45:33.342Z,100110.31
2018-06-15T06:48:02.280Z,100108.15
2018-06-15T06:50:31.191Z,100109.84
2018-06-15T06:53:00.055Z,100099.59
2018-06-15T06:55:28.853Z,100106.62
2018-06-15T06:57:57.685Z,100096.05
2018-06-15T07:00:26.470Z,100109.11
2018-06-15T07:02:55.281Z,100113.80
2018-06-15T07:05:24.097Z,100116.14
2018-06-15T07:07:52.873Z,100119.02
2018-06-15T07:10:21.624Z,100105.44
2018-06-15T07:12:50.386Z,100114.66
2018-06-15T07:15:19.161Z,100107.12
2018-06-15T07:17:47.981Z,100105.63
2018-06-15T07:20:16.740Z,100107.79
2018-06-15T07:22:45.549Z,100115.83
2018-06-15T07:25:14.339Z,100108.64
2018-06-15T07:27:43.313Z,100111.48
2018-06-15T07:30:12.158Z,100119.52
2018-06-15T07:32:40.897Z,100129.55
2018-06-15T07:35:09.681Z,100124.53
2018-06-15T07:37:38.519Z,100113.14
2018-06-15T07:40:07.299Z,100127.88
2018-06-15T07:42:36.066Z,100121.85
2018-06-15T07:45:05.218Z,100131.90
2018-06-15T07:47:33.998Z,100128.40
2018-06-15T07:50:03.025Z,100127.73
2018-06-15T07:52:31.993Z,100119.52
2018-06-15T07:55:00.721Z,100120.53
2018-06-15T07:57:29.519Z,100128.40
2018-06-15T07:59:58.328Z,100122.02
2018-06-15T08:02:27.139Z,100119.69
2018-06-15T08:04:55.913Z,100120.88
2018-06-15T08:07:24.753Z,100129.94
2018-06-15T08:09:53.559Z,100133.28
2018-06-15T08:12:22.323Z,100134.57
2018-06-15T08:14:51.130Z,100136.11
2018-06-15T08:17:20.164Z,100141.95
2018-06-15T08:19:48.901Z,100126.38
2018-06-15T08:22:17.718Z,100133.58
2018-06-15T08:24:46.485Z,100141.61
2018-06-15T08:27:15.236Z,100146.97
2018-06-15T08:29:44.222Z,100139.13
2018-06-15T08:32:12.985Z,100140.97
2018-06-15T08:34:41.757Z,100153.53
2018-06-15T08:37:10.542Z,100149.17
2018-06-15T08:39:39.301Z,100148.36
2018-06-15T08:42:08.091Z,100150.70
2018-06-15T08:44:36.887Z,100168.27
2018-06-15T08:47:05.769Z,100172.94
2018-06-15T08:49:34.578Z,100177.30
2018-06-15T08:52:03.370Z,100177.81
2018-06-15T08:54:32.197Z,100159.05
2018-06-15T08:57:00.966Z,100169.92
2018-06-15T08:59:29.759Z,100177.30
2018-06-15T09:01:58.511Z,100167.78
2018-06-15T09:04:27.277Z,100171.80
2018-06-15T09:06:56.036Z,100165.41
2018-06-15T09:09:24.854Z,100175.81
2018-06-15T09:11:53.582Z,100166.73
2018-06-15T09:14:22.357Z,100178.98
2018-06-15T09:16:51.110Z,100182.48
2018-06-15T09:19:19.857Z,100183.32
2018-06-15T09:21:48.639Z,100173.45
2018-06-15T09:24:17.390Z,100178.64
2018-06-15T09:26:46.142Z,100186.34
2018-06-15T09:29:15.203Z,100176.80
2018-06-15T09:31:43.982Z,100184.34
2018-06-15T09:34:12.726Z,100191.55
2018-06-15T09:36:41.513Z,100202.28
2018-06-15T09:39:11.538Z,100198.73
2018-06-15T09:41:40.840Z,100210.30
2018-06-15T09:44:09.618Z,100196.41
2018-06-15T09:46:38.403Z,100190.86
2018-06-15T09:49:07.155Z,100202.58
2018-06-15T09:51:35.934Z,100201.27
2018-06-15T09:54:04.730Z,100222.89
2018-06-15T09:56:33.490Z,100214.33
2018-06-15T09:59:02.283Z,100210.64
2018-06-15T10:01:31.042Z,100221.38
2018-06-15T10:03:59.797Z,100210.64
2018-06-15T10:06:34.885Z,100218.00
2018-06-15T10:09:03.965Z,100213.31
2018-06-15T10:11:32.706Z,100214.84
2018-06-15T10:14:01.651Z,100211.48
2018-06-15T10:16:30.415Z,100228.58
2018-06-15T10:18:59.218Z,100227.23
2018-06-15T10:21:27.986Z,100236.63
2018-06-15T10:23:56.744Z,100242.33
2018-06-15T10:26:25.502Z,100242.47
2018-06-15T10:28:54.312Z,100243.14
2018-06-15T10:31:23.106Z,100242.65
2018-06-15T10:33:51.925Z,100232.92
2018-06-15T10:36:20.839Z,100247.16
2018-06-15T10:38:49.625Z,100264.58
2018-06-15T10:41:18.395Z,100261.25
2018-06-15T10:43:47.155Z,100257.03
2018-06-15T10:46:16.010Z,100247.83
2018-06-15T10:48:44.750Z,100269.27
2018-06-15T10:51:13.506Z,100248.50
2018-06-15T10:53:42.272Z,100256.55
2018-06-15T10:56:11.051Z,100208.29
2018-06-15T10:58:39.917Z,100265.75
2018-06-15T11:01:08.809Z,100267.44
2018-06-15T11:03:37.570Z,100259.38
2018-06-15T11:06:06.338Z,100254.18
2018-06-15T11:08:35.104Z,100281.19
2018-06-15T11:11:03.866Z,100280.99
2018-06-15T11:13:32.617Z,100278.66
2018-06-15T11:16:01.530Z,100275.80
2018-06-15T11:18:30.294Z,100281.70
2018-06-15T11:20:59.260Z,100288.06
2018-06-15T11:23:28.235Z,100295.41
2018-06-15T11:25:57.007Z,100302.14
2018-06-15T11:28:25.955Z,100293.08
2018-06-15T11:30:54.809Z,100293.40
2018-06-15T11:33:23.814Z,100297.72
2018-06-15T11:35:52.594Z,100300.09
2018-06-15T11:38:21.498Z,100303.95
2018-06-15T11:40:50.257Z,100304.63
2018-06-15T11:43:19.065Z,100311.50
2018-06-15T11:45:47.862Z,100311.35
2018-06-15T11:48:16.623Z,100313.16
2018-06-15T11:50:45.407Z,100314.50
2018-06-15T11:53:14.237Z,100312.83
2018-06-15T11:55:42.973Z,100314.86
2018-06-15T11:58:11.722Z,100322.57
2018-06-15T12:00:40.489Z,100320.03
2018-06-15T12:03:09.265Z,100322.87
2018-06-15T12:05:38.293Z,100323.89
2018-06-15T12:08:07.372Z,100336.34
2018-06-15T12:10:36.154Z,100341.98
2018-06-15T12:13:04.997Z,100345.01
2018-06-15T12:15:33.778Z,100341.68
2018-06-15T12:18:02.829Z,100338.81
2018-06-15T12:20:31.582Z,100345.34
2018-06-15T12:23:00.326Z,100342.86
2018-06-15T12:25:29.265Z,100351.06
2018-06-15T12:27:58.033Z,100344.69
2018-06-15T12:30:26.789Z,100355.05
2018-06-15T12:32:55.521Z,100353.75
2018-06-15T12:35:24.275Z,100343.02
2018-06-15T12:37:53.147Z,100361.30
2018-06-15T12:40:21.954Z,100323.88
2018-06-15T12:42:50.721Z,100362.47
2018-06-15T12:45:19.566Z,100361.47
2018-06-15T12:47:48.305Z,100355.91
2018-06-15T12:50:17.046Z,100358.78
2018-06-15T12:52:45.791Z,100364.31
2018-06-15T12:55:14.557Z,100377.91
2018-06-15T12:57:43.440Z,100383.77
2018-06-15T13:00:12.269Z,100380.53
2018-06-15T13:02:41.037Z,100403.05
2018-06-15T13:05:09.820Z,100399.68
2018-06-15T13:07:38.587Z,100398.33
2018-06-15T13:10:07.358Z,100395.30
2018-06-15T13:12:36.125Z,100402.02
2018-06-15T13:15:04.958Z,100400.00
2018-06-15T13:17:33.717Z,100404.72
2018-06-15T13:20:02.646Z,100406.73
2018-06-15T13:22:31.465Z,100402.36
2018-06-15T13:25:00.213Z,100396.64
2018-06-15T13:27:28.962Z,100402.70
2018-06-15T13:30:04.075Z,100416.45
2018-06-15T13:32:32.848Z,100421.50
2018-06-15T13:35:01.621Z,100417.81
2018-06-15T13:37:30.495Z,100420.82
2018-06-15T13:39:59.544Z,100425.17
2018-06-15T13:42:28.615Z,100418.13
2018-06-15T13:44:57.399Z,100420.42
2018-06-15T13:47:26.238Z,100443.30
2018-06-15T13:49:55.048Z,100442.62
2018-06-15T13:52:23.905Z,100444.66
2018-06-15T13:55:13.955Z,100435.60
2018-06-15T13:57:42.766Z,100451.03
2018-06-15T14:00:11.545Z,100446.48
2018-06-15T14:02:40.314Z,100447.31
2018-06-15T14:05:09.171Z,100451.03
2018-06-15T14:07:37.954Z,100456.91
2018-06-15T14:10:06.962Z,100467.31
2018-06-15T14:12:35.776Z,100462.27
2018-06-15T14:15:04.611Z,100469.64
2018-06-15T14:17:33.449Z,100459.77
2018-06-15T14:20:02.298Z,100455.39
2018-06-15T14:22:31.075Z,100455.58
2018-06-15T14:24:59.851Z,100471.86
2018-06-15T14:27:28.665Z,100469.98
2018-06-15T14:29:57.517Z,100468.29
2018-06-15T14:32:26.405Z,100498.52
2018-06-15T14:34:55.186Z,100478.70
2018-06-15T14:37:23.972Z,100479.56
2018-06-15T14:39:52.749Z,100490.13
2018-06-15T14:42:21.525Z,100482.57
2018-06-15T14:44:50.326Z,100487.94
2018-06-15T14:47:19.109Z,100490.96
2018-06-15T14:49:47.894Z,100493.65
2018-06-15T14:52:16.685Z,100495.66
2018-06-15T14:54:45.741Z,100505.06
2018-06-15T14:57:14.545Z,100509.73
2018-06-15T14:59:43.337Z,100511.95
2018-06-15T15:02:12.363Z,100502.89
2018-06-15T15:04:41.130Z,100513.95
2018-06-15T15:07:09.979Z,100523.55
2018-06-15T15:09:38.807Z,100520.67
2018-06-15T15:12:07.615Z,100527.91
2018-06-15T15:14:36.405Z,100520.00
2018-06-15T15:17:05.312Z,100527.22
2018-06-15T15:19:34.065Z,100518.83
2018-06-15T15:22:02.829Z,100533.44
2018-06-15T15:24:31.653Z,100541.66
2018-06-15T15:27:00.426Z,100533.77
2018-06-15T15:29:29.210Z,100536.98
2018-06-15T15:31:57.970Z,100543.35
2018-06-15T15:34:26.794Z,100493.17
2018-06-15T15:36:55.577Z,100552.75
2018-06-15T15:39:24.478Z,100554.24
2018-06-15T15:41:53.289Z,100569.02
2018-06-15T15:44:22.154Z,100568.54
2018-06-15T15:46:50.927Z,100570.55
2018-06-15T15:49:19.702Z,100569.19
2018-06-15T15:51:48.522Z,100571.40
2018-06-15T15:54:17.293Z,100563.00
2018-06-15T15:56:46.083Z,100572.56
2018-06-15T15:59:14.866Z,100579.61
2018-06-15T16:01:43.666Z,100582.15
2018-06-15T16:04:12.478Z,100573.91
2018-06-15T16:06:41.233Z,100592.19
2018-06-15T16:09:10.639Z,100591.36
2018-06-15T16:11:39.441Z,100593.70
2018-06-15T16:14:08.253Z,100590.69
2018-06-15T16:16:37.152Z,100597.92
2018-06-15T16:19:05.981Z,100605.65
2018-06-15T16:21:34.779Z,100602.78
2018-06-15T16:24:03.563Z,100609.16
2018-06-15T16:26:32.332Z,100605.63
2018-06-15T16:29:01.981Z,100604.62
2018-06-15T16:31:31.422Z,100604.80
2018-06-15T16:34:00.225Z,100608.50
2018-06-15T16:36:33.578Z,100596.73
2018-06-15T16:39:02.322Z,100609.16
2018-06-15T16:41:31.139Z,100604.98
2018-06-15T16:43:59.948Z,100607.00
2018-06-15T16:46:28.835Z,100621.92
2018-06-15T16:48:57.589Z,100629.98
2018-06-15T16:51:26.376Z,100628.98
2018-06-15T16:53:55.136Z,100641.25
2018-06-15T16:56:23.943Z,100593.88
2018-06-15T16:58:52.734Z,100636.22
2018-06-15T17:01:21.511Z,100643.42
2018-06-15T17:03:50.349Z,100642.75
2018-06-15T17:06:19.170Z,100608.16
2018-06-15T17:08:48.113Z,100656.85
2018-06-15T17:11:16.881Z,100645.43
2018-06-15T17:13:45.713Z,100650.81
2018-06-15T17:16:14.505Z,100656.85
2018-06-15T17:18:43.407Z,100651.14
2018-06-15T17:21:12.265Z,100659.20
2018-06-15T17:23:41.038Z,100647.30
2018-06-15T17:26:09.817Z,100657.00
2018-06-15T17:28:38.661Z,100662.89
2018-06-15T17:31:07.474Z,100661.41
2018-06-15T17:33:36.331Z,100662.89
2018-06-15T17:36:05.423Z,100660.88
2018-06-15T17:38:34.348Z,100664.91
2018-06-15T17:41:03.196Z,100666.59
2018-06-15T17:43:32.060Z,100659.39
2018-06-15T17:46:00.814Z,100655.51
2018-06-15T17:48:29.676Z,100661.55
2018-06-15T17:50:58.690Z,100664.23
2018-06-15T17:53:27.490Z,100661.70
2018-06-15T17:55:56.293Z,100678.83
2018-06-15T17:58:25.242Z,100678.34
2018-06-15T18:00:54.021Z,100675.98
2018-06-15T18:03:22.849Z,100681.17
2018-06-15T18:05:51.630Z,100683.71
2018-06-15T18:08:20.462Z,100687.21
2018-06-15T18:10:49.260Z,100687.06
2018-06-15T18:13:18.197Z,100698.81
2018-06-15T18:15:47.028Z,100702.64
2018-06-15T18:18:15.937Z,100670.68
2018-06-15T18:20:44.738Z,100700.64
2018-06-15T18:23:13.499Z,100706.87
2018-06-15T18:25:42.309Z,100704.33
2018-06-15T18:28:11.105Z,100705.33
2018-06-15T18:30:39.915Z,100705.48
2018-06-15T18:33:09.251Z,100705.14
2018-06-15T18:35:38.087Z,100710.36
2018-06-15T18:38:06.953Z,100719.08
2018-06-15T18:40:36.309Z,100721.10
2018-06-15T18:43:05.442Z,100722.11
2018-06-15T18:45:34.460Z,100730.48
2018-06-15T18:48:03.330Z,100730.64
2018-06-15T18:50:32.225Z,100736.67
2018-06-15T18:53:01.019Z,100741.22
2018-06-15T18:55:29.840Z,100745.39
2018-06-15T18:57:58.898Z,100754.45
2018-06-15T19:00:28.200Z,100755.12
2018-06-15T19:02:57.001Z,100758.81
2018-06-15T19:05:25.915Z,100759.98
2018-06-15T19:07:54.776Z,100767.19
2018-06-15T19:10:23.616Z,100745.06
2018-06-15T19:12:52.426Z,100784.44
2018-06-15T19:15:21.216Z,100787.86
2018-06-15T19:17:50.134Z,100789.72
2018-06-15T19:20:19.750Z,100788.91
2018-06-15T19:22:48.753Z,100799.33
2018-06-15T19:25:17.765Z,100801.53
2018-06-15T19:27:46.611Z,100800.02
2018-06-15T19:30:15.522Z,100806.06
2018-06-15T19:32:44.374Z,100809.09
2018-06-15T19:35:13.217Z,100807.75
2018-06-15T19:37:42.009Z,100805.73
2018-06-15T19:40:10.782Z,100810.63
2018-06-15T19:42:39.593Z,100813.81
2018-06-15T19:45:08.500Z,100822.39
2018-06-15T19:47:37.258Z,100816.01
2018-06-15T19:50:06.063Z,100823.06
2018-06-15T19:52:34.890Z,100816.34
2018-06-15T19:55:03.682Z,100830.59
2018-06-15T19:57:32.469Z,100830.12
2018-06-15T20:00:01.249Z,100840.53
2018-06-15T20:02:30.016Z,100840.69
2018-06-15T20:04:58.814Z,100851.29
2018-06-15T20:07:27.606Z,100851.27
2018-06-15T20:09:56.503Z,100851.05
2018-06-15T20:12:25.324Z,100854.37
2018-06-15T20:14:54.111Z,100857.61
2018-06-15T20:17:22.874Z,100869.88
2018-06-15T20:19:51.683Z,100862.82
2018-06-15T20:22:20.579Z,100871.17
2018-06-15T20:24:49.358Z,100867.78
2018-06-15T20:27:18.184Z,100873.03
2018-06-15T20:29:46.955Z,100875.95
2018-06-15T20:32:15.764Z,100868.64
2018-06-15T20:34:44.553Z,100872.15
2018-06-15T20:37:13.328Z,100880.60
2018-06-15T20:39:42.226Z,100882.77
2018-06-15T20:42:11.250Z,100883.53
2018-06-15T20:44:40.004Z,100882.19
2018-06-15T20:47:08.777Z,100887.49
2018-06-15T20:49:37.577Z,100886.84
2018-06-15T20:52:06.482Z,100888.18
2018-06-15T20:54:35.275Z,100893.48
2018-06-15T20:57:04.109Z,100902.24
2018-06-15T20:59:32.901Z,100901.73
2018-06-15T21:02:01.680Z,100905.61
2018-06-15T21:04:30.533Z,100906.85
2018-06-15T21:06:59.278Z,100915.24
2018-06-15T21:09:28.037Z,100918.00
2018-06-15T21:11:56.846Z,100920.26
2018-06-15T21:14:25.814Z,100924.66
2018-06-15T21:16:54.631Z,100924.76
2018-06-15T21:19:23.409Z,100928.70
2018-06-15T21:21:52.250Z,100935.75
2018-06-15T21:24:21.041Z,100930.69
2018-06-15T21:26:49.853Z,100930.98
2018-06-15T21:29:18.621Z,100937.21
2018-06-15T21:31:47.417Z,100938.98
2018-06-15T21:34:16.181Z,100943.30
2018-06-15T21:36:44.934Z,100934.55
2018-06-15T21:39:13.710Z,100938.32
2018-06-15T21:41:42.505Z,100939.05
2018-06-15T21:44:11.281Z,100940.16
2018-06-15T21:46:40.066Z,100943.20
2018-06-15T21:49:08.917Z,100938.22
2018-06-15T21:51:37.684Z,100941.97
2018-06-15T21:54:06.534Z,100954.83
2018-06-15T21:56:35.346Z,100948.48
2018-06-15T21:59:04.118Z,100952.39
2018-06-15T22:01:32.910Z,100949.31
2018-06-15T22:04:02.013Z,100952.14
2018-06-15T22:06:30.845Z,100951.83
2018-06-15T22:08:59.641Z,100952.06
2018-06-15T22:11:28.473Z,100955.09
2018-06-15T22:13:57.234Z,100960.95
2018-06-15T22:16:26.094Z,100961.04
2018-06-15T22:18:55.014Z,100964.05
2018-06-15T22:21:23.804Z,100961.04
2018-06-15T22:23:52.573Z,100959.83
2018-06-15T22:26:21.607Z,100970.89
2018-06-15T22:28:50.386Z,100972.01
2018-06-15T22:31:19.193Z,100975.73
2018-06-15T22:33:48.003Z,100969.49
2018-06-15T22:36:16.785Z,100978.16
2018-06-15T22:38:45.582Z,100983.03
2018-06-15T22:41:14.385Z,100989.70
2018-06-15T22:43:43.162Z,100986.26
2018-06-15T22:46:11.938Z,100987.05
2018-06-15T22:48:40.724Z,100987.80
2018-06-15T22:51:09.493Z,100999.02
2018-06-15T22:53:38.346Z,100996.87
2018-06-15T22:56:07.297Z,100988.42
2018-06-15T22:58:36.182Z,100998.42
2018-06-15T23:01:05.016Z,100994.69
2018-06-15T23:03:33.811Z,100990.61
2018-06-15T23:06:02.626Z,100981.88
2018-06-15T23:08:31.417Z,100984.72
2018-06-15T23:11:00.200Z,100986.28
2018-06-15T23:13:28.968Z,100982.86
2018-06-15T23:15:58.161Z,100982.86
2018-06-15T23:18:26.980Z,100987.95
2018-06-15T23:20:55.757Z,100986.94
2018-06-15T23:23:24.612Z,100978.64
2018-06-15T23:25:53.563Z,100975.53
2018-06-15T23:28:22.318Z,100974.81
2018-06-15T23:30:51.094Z,100979.27
2018-06-15T23:33:19.886Z,100980.81
2018-06-15T23:35:48.691Z,100989.79
2018-06-15T23:38:17.483Z,100994.80
2018-06-15T23:40:46.236Z,100989.69
2018-06-15T23:43:14.982Z,100987.84
2018-06-15T23:45:43.773Z,100981.77
2018-06-15T23:48:12.521Z,100975.72
2018-06-15T23:50:41.283Z,100985.80
2018-06-15T23:53:10.067Z,100990.94
2018-06-15T23:55:38.879Z,100991.38
2018-06-15T23:58:07.630Z,100994.67
